Time;durP1;ratioP1;P1;durP2;ratioP2;P2;SDS_P1;SDS_P2;PMS_P1;PMS_P2;Temp;Humidity;BMP_temperature;BMP_pressure;BME280_temperature;BME280_humidity;BME280_pressure;Samples;Min_cycle;Max_cycle;Signal;HPM_P1;HPM_P2
2021/09/23 00:00:08;;;;;;;13.77;12.27;;;10.90;99.90;;;;;;5095673;28;20206;-61
2021/09/23 00:02:47;;;;;;;18.53;13.50;;;10.90;99.90;;;;;;5095539;28;20205;-61
2021/09/23 00:05:17;;;;;;;14.50;12.50;;;10.80;99.90;;;;;;5095608;28;20188;-60
2021/09/23 00:07:47;;;;;;;15.17;13.17;;;10.80;99.90;;;;;;5095058;28;20259;-61
2021/09/23 00:10:19;;;;;;;17.80;13.40;;;10.80;99.90;;;;;;5095203;28;20632;-62
2021/09/23 00:12:47;;;;;;;15.70;12.43;;;10.70;99.90;;;;;;5095188;28;20557;-60
2021/09/23 00:15:16;;;;;;;17.43;12.60;;;10.70;99.90;;;;;;5095422;28;20203;-61
2021/09/23 00:17:48;;;;;;;15.03;11.77;;;10.70;99.90;;;;;;5094994;28;20204;-61
2021/09/23 00:20:17;;;;;;;13.97;11.50;;;10.60;99.90;;;;;;5095305;28;20180;-61
2021/09/23 00:22:45;;;;;;;13.13;11.03;;;10.60;99.90;;;;;;5095204;28;20282;-61
2021/09/23 00:25:13;;;;;;;15.37;11.53;;;10.60;99.90;;;;;;5095177;28;20555;-61
2021/09/23 00:27:42;;;;;;;17.07;12.50;;;10.60;99.90;;;;;;5094327;28;20222;-61
2021/09/23 00:30:11;;;;;;;16.07;12.47;;;10.60;99.90;;;;;;5094881;28;20298;-61
2021/09/23 00:32:39;;;;;;;16.60;12.73;;;10.60;99.90;;;;;;5094277;28;20756;-59
2021/09/23 00:35:08;;;;;;;16.57;13.60;;;10.60;99.90;;;;;;5095007;28;20199;-62
2021/09/23 00:37:37;;;;;;;15.67;13.60;;;10.60;99.90;;;;;;5094778;28;20200;-61
2021/09/23 00:40:08;;;;;;;16.73;14.40;;;10.60;99.90;;;;;;5094861;28;20617;-61
2021/09/23 00:42:36;;;;;;;18.87;14.43;;;10.60;99.90;;;;;;5094663;28;20263;-60
2021/09/23 00:45:08;;;;;;;17.53;14.40;;;10.50;99.90;;;;;;5095012;28;20204;-62
2021/09/23 00:47:36;;;;;;;16.80;14.23;;;10.50;99.90;;;;;;5094740;28;20259;-62
2021/09/23 00:50:06;;;;;;;16.60;14.87;;;10.50;99.90;;;;;;5094482;28;20671;-60
2021/09/23 00:52:36;;;;;;;16.90;14.33;;;10.50;99.90;;;;;;5094296;28;20295;-61
2021/09/23 00:55:05;;;;;;;16.03;14.30;;;10.50;99.90;;;;;;5094769;28;20258;-62
2021/09/23 00:57:33;;;;;;;18.37;14.93;;;10.50;99.90;;;;;;5094612;28;20206;-61
2021/09/23 01:00:01;;;;;;;18.47;15.33;;;10.50;99.90;;;;;;5094330;28;20207;-61
2021/09/23 01:02:30;;;;;;;17.77;14.20;;;10.50;99.90;;;;;;5094182;28;20648;-60
2021/09/23 01:04:58;;;;;;;21.20;18.40;;;10.50;99.90;;;;;;5094473;28;20575;-61
2021/09/23 01:07:26;;;;;;;20.17;18.07;;;10.50;99.90;;;;;;5093817;28;20207;-62
2021/09/23 01:09:56;;;;;;;18.67;16.33;;;10.50;99.90;;;;;;5094369;28;20197;-61
2021/09/23 01:12:26;;;;;;;15.97;14.27;;;10.40;99.90;;;;;;5094259;28;20212;-61
2021/09/23 01:14:55;;;;;;;17.87;15.70;;;10.40;99.90;;;;;;5094311;28;20211;-61
2021/09/23 01:17:23;;;;;;;19.53;17.53;;;10.40;99.90;;;;;;5093861;28;20651;-61
2021/09/23 01:19:52;;;;;;;19.67;17.57;;;10.40;99.90;;;;;;5094243;28;20204;-61
2021/09/23 01:22:22;;;;;;;17.73;15.87;;;10.40;99.90;;;;;;5093566;28;20744;-61
2021/09/23 01:24:50;;;;;;;19.43;14.20;;;10.40;99.90;;;;;;5093664;28;20743;-61
2021/09/23 01:27:18;;;;;;;15.60;14.00;;;10.40;99.90;;;;;;5093982;28;20200;-61
2021/09/23 01:29:46;;;;;;;16.17;13.47;;;10.40;99.90;;;;;;5093999;28;20218;-61
2021/09/23 01:32:16;;;;;;;17.83;13.77;;;10.30;99.90;;;;;;5093724;28;20200;-61
2021/09/23 01:34:45;;;;;;;17.17;14.43;;;10.30;99.90;;;;;;5093700;28;20188;-62
2021/09/23 01:37:12;;;;;;;17.90;14.50;;;10.40;99.90;;;;;;5093608;28;20196;-61
2021/09/23 01:39:42;;;;;;;15.70;13.20;;;10.40;99.90;;;;;;5093807;28;20196;-60
2021/09/23 01:42:10;;;;;;;14.83;13.20;;;10.40;99.90;;;;;;5093517;28;20318;-61
2021/09/23 01:44:38;;;;;;;15.90;14.17;;;10.40;99.90;;;;;;5093728;28;20287;-62
2021/09/23 01:47:06;;;;;;;16.47;14.77;;;10.50;99.90;;;;;;5093539;28;20207;-61
2021/09/23 01:49:33;;;;;;;15.33;12.73;;;10.50;99.90;;;;;;5093322;28;20671;-62
2021/09/23 01:52:01;;;;;;;18.97;12.60;;;10.50;99.90;;;;;;5093514;28;20292;-61
2021/09/23 01:54:29;;;;;;;14.33;12.17;;;10.40;99.90;;;;;;5093427;28;20298;-61
2021/09/23 01:56:58;;;;;;;15.03;11.93;;;10.40;99.90;;;;;;5093402;28;20228;-61
2021/09/23 01:59:26;;;;;;;13.63;11.70;;;10.40;99.90;;;;;;5093412;28;20547;-62
2021/09/23 02:01:54;;;;;;;16.10;12.07;;;10.40;99.90;;;;;;5093167;28;20204;-62
2021/09/23 02:04:22;;;;;;;14.93;12.67;;;10.40;99.90;;;;;;5093297;28;20245;-61
2021/09/23 02:06:50;;;;;;;13.77;12.23;;;10.40;99.90;;;;;;5093271;28;20219;-62
2021/09/23 02:09:17;;;;;;;16.30;12.57;;;10.40;99.90;;;;;;5092762;28;20314;-61
2021/09/23 02:11:45;;;;;;;16.50;13.37;;;10.40;99.90;;;;;;5092913;28;20304;-62
2021/09/23 02:14:15;;;;;;;14.17;12.67;;;10.40;99.90;;;;;;5092766;28;20676;-61
2021/09/23 02:16:42;;;;;;;17.90;13.20;;;10.40;99.90;;;;;;5092955;28;20693;-61
2021/09/23 02:19:10;;;;;;;14.97;12.00;;;10.30;99.90;;;;;;5092656;28;20204;-62
2021/09/23 02:21:38;;;;;;;19.33;13.20;;;10.30;99.90;;;;;;5092914;28;20204;-61
2021/09/23 02:24:06;;;;;;;15.83;13.07;;;10.30;99.90;;;;;;5092794;28;20200;-61
2021/09/23 02:26:34;;;;;;;17.37;12.90;;;10.30;99.90;;;;;;5092784;28;20287;-62
2021/09/23 02:29:02;;;;;;;16.10;13.70;;;10.20;99.90;;;;;;5092937;28;20660;-62
2021/09/23 02:31:31;;;;;;;16.33;13.43;;;10.30;99.90;;;;;;5092334;28;20211;-61
2021/09/23 02:33:59;;;;;;;15.63;12.83;;;10.30;99.90;;;;;;5092678;28;20224;-60
2021/09/23 02:36:26;;;;;;;16.17;13.63;;;10.30;99.90;;;;;;5092708;28;20239;-60
2021/09/23 02:38:54;;;;;;;14.20;12.70;;;10.30;99.90;;;;;;5092305;28;20295;-62
2021/09/23 02:41:22;;;;;;;17.33;13.37;;;10.20;99.90;;;;;;5092748;28;20279;-61
2021/09/23 02:43:50;;;;;;;17.20;13.33;;;10.30;99.90;;;;;;5092596;28;20196;-62
2021/09/23 02:46:18;;;;;;;15.87;13.70;;;10.20;99.90;;;;;;5092551;28;20210;-61
2021/09/23 02:48:47;;;;;;;15.57;12.97;;;10.30;99.90;;;;;;5092443;28;20418;-62
2021/09/23 02:51:15;;;;;;;15.23;13.17;;;10.30;99.90;;;;;;5092028;28;20282;-62
2021/09/23 02:53:43;;;;;;;14.87;12.80;;;10.20;99.90;;;;;;5091992;28;20691;-62
2021/09/23 02:56:11;;;;;;;16.77;12.40;;;10.20;99.90;;;;;;5092514;28;20199;-61
2021/09/23 02:58:39;;;;;;;15.30;12.40;;;10.20;99.90;;;;;;5092411;28;20204;-61
2021/09/23 03:01:07;;;;;;;17.00;13.53;;;10.20;99.90;;;;;;5091841;28;20204;-61
2021/09/23 03:03:35;;;;;;;16.23;12.63;;;10.20;99.90;;;;;;5092428;28;20561;-62
2021/09/23 03:06:05;;;;;;;14.37;12.50;;;10.20;99.90;;;;;;5092282;28;20227;-61
2021/09/23 03:08:33;;;;;;;19.37;13.87;;;10.20;99.90;;;;;;5091831;28;20263;-61
2021/09/23 03:11:00;;;;;;;14.37;12.83;;;10.20;99.90;;;;;;5091966;28;20206;-62
2021/09/23 03:13:28;;;;;;;16.83;13.73;;;10.20;99.90;;;;;;5092174;28;20260;-62
2021/09/23 03:15:56;;;;;;;16.13;13.23;;;10.20;99.90;;;;;;5092134;28;20283;-62
2021/09/23 03:18:24;;;;;;;15.67;13.23;;;10.30;99.90;;;;;;5092204;28;20537;-60
2021/09/23 03:20:52;;;;;;;14.67;12.87;;;10.30;99.90;;;;;;5092150;28;20222;-61
2021/09/23 03:23:21;;;;;;;15.53;12.70;;;10.30;99.90;;;;;;5091862;28;20239;-60
2021/09/23 03:25:50;;;;;;;15.77;12.63;;;10.20;99.90;;;;;;5091714;28;20723;-62
2021/09/23 03:28:19;;;;;;;16.53;13.00;;;10.20;99.90;;;;;;5092123;28;20202;-61
2021/09/23 03:30:47;;;;;;;15.00;13.40;;;10.10;99.90;;;;;;5091774;28;20208;-64
2021/09/23 03:33:15;;;;;;;16.93;12.90;;;10.10;99.90;;;;;;5091937;28;20318;-64
2021/09/23 03:35:43;;;;;;;13.50;12.03;;;10.10;99.90;;;;;;5091609;28;20314;-64
2021/09/23 03:38:11;;;;;;;15.90;13.03;;;10.10;99.90;;;;;;5091449;28;20206;-64
2021/09/23 03:40:44;;;;;;;19.73;13.20;;;10.10;99.90;;;;;;5092033;28;20287;-64
2021/09/23 03:43:11;;;;;;;17.93;13.67;;;10.10;99.90;;;;;;5091979;28;20185;-64
2021/09/23 03:45:39;;;;;;;17.53;13.10;;;10.00;99.90;;;;;;5091858;28;20196;-64
2021/09/23 03:48:08;;;;;;;18.30;13.73;;;10.10;99.90;;;;;;5091535;28;20215;-64
2021/09/23 03:50:35;;;;;;;17.30;13.23;;;10.10;99.90;;;;;;5091835;28;20196;-63
2021/09/23 03:53:04;;;;;;;17.97;13.33;;;10.10;99.90;;;;;;5091679;28;20196;-64
2021/09/23 03:55:32;;;;;;;16.63;12.97;;;10.10;99.90;;;;;;5091450;28;20226;-62
2021/09/23 03:58:01;;;;;;;17.37;12.93;;;10.10;99.90;;;;;;5091531;28;20205;-63
2021/09/23 04:00:29;;;;;;;18.93;12.40;;;10.20;99.90;;;;;;5091457;28;20644;-64
2021/09/23 04:02:57;;;;;;;19.23;12.57;;;10.10;99.90;;;;;;5091789;28;20206;-63
2021/09/23 04:05:25;;;;;;;15.83;12.33;;;10.20;99.90;;;;;;5095482;28;20234;-63
2021/09/23 04:07:53;;;;;;;16.77;12.00;;;10.10;99.90;;;;;;5095051;28;20228;-64
2021/09/23 04:10:22;;;;;;;15.13;11.27;;;10.20;99.90;;;;;;5095023;28;20204;-63
2021/09/23 04:12:52;;;;;;;15.50;11.87;;;10.20;99.90;;;;;;5095448;28;20211;-63
2021/09/23 04:15:21;;;;;;;18.13;11.90;;;10.20;99.90;;;;;;5094986;28;20216;-64
2021/09/23 04:17:49;;;;;;;19.60;12.20;;;10.20;99.90;;;;;;5095183;28;20223;-63
2021/09/23 04:20:17;;;;;;;15.50;11.13;;;10.20;99.90;;;;;;5095293;28;20202;-64
2021/09/23 04:22:45;;;;;;;15.20;11.23;;;10.20;99.90;;;;;;5095237;28;20199;-63
2021/09/23 04:25:13;;;;;;;12.70;10.60;;;10.20;99.90;;;;;;5095763;28;20196;-63
2021/09/23 04:27:41;;;;;;;20.80;11.40;;;10.20;99.90;;;;;;5095736;28;20200;-63
2021/09/23 04:30:10;;;;;;;15.77;10.53;;;10.20;99.90;;;;;;5095708;28;20204;-64
2021/09/23 04:32:39;;;;;;;17.07;11.30;;;10.20;99.90;;;;;;5095193;28;20660;-64
2021/09/23 04:35:08;;;;;;;14.27;11.47;;;10.10;99.90;;;;;;5095372;28;20722;-62
2021/09/23 04:37:36;;;;;;;15.03;10.80;;;10.20;99.90;;;;;;5095167;28;20211;-63
2021/09/23 04:40:04;;;;;;;14.47;11.20;;;10.20;99.90;;;;;;5095585;28;20196;-64
2021/09/23 04:42:32;;;;;;;15.90;10.87;;;10.20;99.90;;;;;;5095521;28;20199;-64
2021/09/23 04:45:00;;;;;;;17.77;11.23;;;10.20;99.90;;;;;;5094996;28;20239;-63
2021/09/23 04:47:28;;;;;;;14.23;11.53;;;10.20;99.90;;;;;;5095261;28;20204;-64
2021/09/23 04:49:57;;;;;;;16.00;11.27;;;10.20;99.90;;;;;;5095419;28;20299;-65
2021/09/23 04:52:25;;;;;;;16.17;11.60;;;10.20;99.90;;;;;;5095267;28;20291;-64
2021/09/23 04:54:53;;;;;;;14.40;11.60;;;10.20;99.90;;;;;;5094628;28;20790;-64
2021/09/23 04:57:20;;;;;;;14.50;11.30;;;10.20;99.90;;;;;;5094999;28;20195;-62
2021/09/23 04:59:48;;;;;;;15.73;11.73;;;10.20;99.90;;;;;;5095033;28;20298;-64
2021/09/23 05:02:16;;;;;;;15.33;11.23;;;10.30;99.90;;;;;;5094857;28;20200;-64
2021/09/23 05:04:45;;;;;;;14.47;11.90;;;10.30;99.90;;;;;;5094846;28;20207;-63
2021/09/23 05:07:15;;;;;;;12.83;10.83;;;10.30;99.90;;;;;;5094285;28;20218;-65
2021/09/23 05:09:43;;;;;;;13.57;11.17;;;10.30;99.90;;;;;;5094689;28;20228;-64
2021/09/23 05:12:11;;;;;;;14.07;12.13;;;10.30;99.90;;;;;;5094610;28;20693;-63
2021/09/23 05:14:39;;;;;;;15.83;11.70;;;10.30;99.90;;;;;;5094199;28;20305;-63
2021/09/23 05:17:07;;;;;;;13.80;10.83;;;10.30;99.90;;;;;;5094237;28;20613;-64
2021/09/23 05:19:35;;;;;;;15.40;10.97;;;10.30;99.90;;;;;;5094593;28;20283;-63
2021/09/23 05:22:03;;;;;;;14.63;11.10;;;10.30;99.90;;;;;;5094654;28;20196;-63
2021/09/23 05:24:32;;;;;;;15.00;12.03;;;10.40;99.90;;;;;;5094511;28;20200;-63
2021/09/23 05:27:00;;;;;;;13.00;11.37;;;10.40;99.90;;;;;;5094230;28;20215;-64
2021/09/23 05:29:28;;;;;;;14.90;11.13;;;10.40;99.90;;;;;;5094478;28;20546;-64
2021/09/23 05:31:55;;;;;;;15.50;11.27;;;10.50;99.90;;;;;;5094113;28;20203;-63
2021/09/23 05:34:24;;;;;;;16.47;12.37;;;10.50;99.90;;;;;;5094037;28;20303;-63
2021/09/23 05:36:52;;;;;;;12.87;11.33;;;10.50;99.90;;;;;;5093787;28;20210;-64
2021/09/23 05:39:19;;;;;;;13.33;11.53;;;10.60;99.90;;;;;;5093857;28;20710;-63
2021/09/23 05:41:48;;;;;;;14.80;11.17;;;10.60;99.90;;;;;;5094343;28;20562;-62
2021/09/23 05:44:23;;;;;;;11.80;10.60;;;10.70;99.90;;;;;;5093830;28;20206;-63
2021/09/23 05:46:51;;;;;;;12.87;11.07;;;10.70;99.90;;;;;;5093958;28;20181;-63
2021/09/23 05:49:19;;;;;;;12.53;10.50;;;10.80;99.90;;;;;;5094188;28;20215;-63
2021/09/23 05:51:47;;;;;;;13.87;10.20;;;10.80;99.90;;;;;;5094191;28;20345;-63
2021/09/23 05:54:15;;;;;;;12.43;10.70;;;10.80;99.90;;;;;;5093756;28;20551;-63
2021/09/23 05:56:43;;;;;;;14.00;10.40;;;10.90;99.90;;;;;;5093673;28;20648;-64
2021/09/23 05:59:12;;;;;;;13.10;10.27;;;11.00;99.90;;;;;;5093584;28;20242;-64
2021/09/23 06:01:40;;;;;;;12.13;10.53;;;11.00;99.90;;;;;;5093653;28;20196;-63
2021/09/23 06:04:08;;;;;;;13.57;10.10;;;11.10;99.90;;;;;;5093446;28;20235;-63
2021/09/23 06:06:37;;;;;;;13.33;9.93;;;11.20;99.90;;;;;;5093767;28;20613;-63
2021/09/23 06:09:04;;;;;;;12.13;10.53;;;11.20;99.90;;;;;;5093057;28;20230;-63
2021/09/23 06:11:35;;;;;;;12.73;10.10;;;11.30;99.90;;;;;;5093204;28;20294;-63
2021/09/23 06:14:03;;;;;;;10.20;9.10;;;11.40;99.90;;;;;;5092921;28;20267;-63
2021/09/23 06:16:32;;;;;;;11.53;9.23;;;11.50;99.90;;;;;;5092767;28;20227;-63
2021/09/23 06:19:00;;;;;;;12.73;9.90;;;11.60;99.90;;;;;;5092789;28;20648;-63
2021/09/23 06:21:28;;;;;;;12.10;9.23;;;11.70;99.90;;;;;;5092804;28;20203;-63
2021/09/23 06:23:56;;;;;;;12.20;9.73;;;11.70;99.90;;;;;;5092692;28;20200;-63
2021/09/23 06:26:23;;;;;;;15.63;9.20;;;11.70;99.90;;;;;;5091828;28;20649;-63
2021/09/23 06:28:51;;;;;;;12.97;9.87;;;11.80;99.90;;;;;;5092517;28;20562;-64
2021/09/23 06:31:19;;;;;;;13.33;9.60;;;11.80;99.90;;;;;;5092616;28;20239;-63
2021/09/23 06:33:48;;;;;;;10.70;8.73;;;11.90;99.90;;;;;;5092647;28;20226;-63
2021/09/23 06:36:16;;;;;;;15.73;9.63;;;12.00;99.90;;;;;;5092560;28;20228;-63
2021/09/23 06:38:44;;;;;;;12.23;8.97;;;12.00;99.90;;;;;;5092233;28;20693;-63
2021/09/23 06:41:12;;;;;;;11.23;9.17;;;12.10;99.90;;;;;;5092577;28;20206;-64
2021/09/23 06:43:40;;;;;;;20.83;8.70;;;12.20;99.90;;;;;;5092532;28;20204;-63
2021/09/23 06:46:09;;;;;;;10.57;8.50;;;12.30;99.90;;;;;;5092253;28;20192;-63
2021/09/23 06:48:37;;;;;;;10.23;8.23;;;12.40;99.90;;;;;;5092183;28;20204;-63
2021/09/23 06:51:06;;;;;;;10.03;8.13;;;12.60;99.90;;;;;;5092309;28;20200;-63
2021/09/23 06:53:34;;;;;;;10.90;8.68;;;12.80;99.90;;;;;;5092102;28;20207;-63
2021/09/23 06:56:02;;;;;;;11.07;9.00;;;12.80;99.90;;;;;;5092137;28;20263;-63
2021/09/23 06:58:29;;;;;;;14.97;8.40;;;12.90;99.90;;;;;;5092282;28;20210;-63
2021/09/23 07:00:57;;;;;;;11.60;8.27;;;13.00;99.90;;;;;;5092189;28;20203;-63
2021/09/23 07:03:25;;;;;;;13.03;8.30;;;13.10;99.90;;;;;;5092207;28;20195;-63
2021/09/23 07:05:53;;;;;;;10.20;7.90;;;13.00;99.90;;;;;;5092172;28;20196;-64
2021/09/23 07:08:22;;;;;;;12.87;8.73;;;13.10;99.90;;;;;;5091759;28;20228;-63
2021/09/23 07:10:50;;;;;;;10.60;7.43;;;13.10;99.90;;;;;;5091830;28;20210;-63
2021/09/23 07:13:18;;;;;;;9.27;7.53;;;13.20;99.90;;;;;;5092072;28;20200;-63
2021/09/23 07:15:46;;;;;;;10.50;7.63;;;13.30;99.90;;;;;;5091840;28;20216;-63
2021/09/23 07:18:14;;;;;;;11.23;7.80;;;13.50;99.90;;;;;;5091914;28;20208;-63
2021/09/23 07:20:42;;;;;;;8.80;7.90;;;13.60;99.90;;;;;;5092003;28;20222;-63
2021/09/23 07:23:10;;;;;;;11.05;7.65;;;13.80;99.90;;;;;;5091787;28;20214;-63
2021/09/23 07:25:39;;;;;;;8.52;7.63;;;14.00;99.90;;;;;;5091973;28;20210;-63
2021/09/23 07:28:07;;;;;;;8.10;6.93;;;14.10;99.90;;;;;;5092042;28;20196;-64
2021/09/23 07:30:34;;;;;;;9.88;7.68;;;14.30;99.90;;;;;;5091574;28;20204;-64
2021/09/23 07:33:02;;;;;;;8.57;6.78;;;14.40;99.90;;;;;;5091773;28;20204;-63
2021/09/23 07:35:30;;;;;;;10.38;7.15;;;14.50;99.90;;;;;;5091961;28;20207;-63
2021/09/23 07:37:58;;;;;;;9.07;6.70;;;14.50;99.90;;;;;;5094066;28;20200;-63
2021/09/23 07:40:25;;;;;;;9.77;6.97;;;14.60;99.90;;;;;;5095926;28;20196;-63
2021/09/23 07:42:55;;;;;;;8.00;5.88;;;14.70;99.90;;;;;;5095686;28;20678;-63
2021/09/23 07:45:23;;;;;;;10.18;6.65;;;14.80;99.90;;;;;;5095654;28;20842;-62
2021/09/23 07:47:50;;;;;;;7.65;6.82;;;14.90;99.90;;;;;;5095624;28;20620;-63
2021/09/23 07:50:18;;;;;;;7.68;6.85;;;15.00;99.90;;;;;;5095325;28;20202;-63
2021/09/23 07:52:46;;;;;;;6.50;5.90;;;15.20;99.90;;;;;;5095821;28;20223;-64
2021/09/23 07:55:14;;;;;;;8.40;6.60;;;15.40;99.90;;;;;;5095342;28;20196;-64
2021/09/23 07:57:42;;;;;;;6.32;5.70;;;15.60;99.90;;;;;;5095715;28;20224;-63
2021/09/23 08:00:12;;;;;;;8.35;6.10;;;15.90;99.90;;;;;;5095640;28;20199;-63
2021/09/23 08:02:40;;;;;;;6.95;6.22;;;16.00;99.90;;;;;;5095516;28;20206;-63
2021/09/23 08:05:09;;;;;;;8.00;5.78;;;16.20;99.90;;;;;;5095255;28;20733;-63
2021/09/23 08:07:39;;;;;;;6.55;5.47;;;16.30;99.90;;;;;;5095141;28;20234;-63
2021/09/23 08:10:07;;;;;;;9.20;6.38;;;16.20;99.90;;;;;;5094916;28;20201;-64
2021/09/23 08:12:35;;;;;;;7.43;5.90;;;16.30;99.90;;;;;;5095186;28;20203;-63
2021/09/23 08:15:06;;;;;;;7.55;5.95;;;16.30;99.90;;;;;;5095184;28;20504;-62
2021/09/23 08:17:35;;;;;;;7.68;6.13;;;16.30;99.90;;;;;;5094458;28;20222;-63
2021/09/23 08:20:04;;;;;;;6.57;5.88;;;16.30;99.90;;;;;;5094863;28;20207;-63
2021/09/23 08:22:32;;;;;;;7.97;5.70;;;16.30;99.90;;;;;;5095086;28;20204;-64
2021/09/23 08:25:00;;;;;;;7.47;5.68;;;16.30;99.90;;;;;;5094843;28;20196;-62
2021/09/23 08:27:27;;;;;;;6.47;5.68;;;16.20;99.90;;;;;;5095046;28;20202;-64
2021/09/23 08:29:55;;;;;;;9.65;6.05;;;16.20;99.90;;;;;;5095049;28;20196;-64
2021/09/23 08:32:23;;;;;;;7.90;6.35;;;16.20;99.90;;;;;;5094574;28;20204;-63
2021/09/23 08:34:53;;;;;;;6.30;5.70;;;16.30;99.90;;;;;;5094588;28;20615;-63
2021/09/23 08:37:21;;;;;;;9.00;5.80;;;16.40;99.90;;;;;;5094489;28;20220;-64
2021/09/23 08:39:49;;;;;;;6.15;5.55;;;16.40;99.90;;;;;;5094562;28;20741;-63
2021/09/23 08:42:17;;;;;;;7.57;6.80;;;16.60;99.90;;;;;;5094391;28;20276;-64
2021/09/23 08:44:46;;;;;;;7.65;6.07;;;16.60;99.90;;;;;;5094439;28;20659;-63
2021/09/23 08:47:14;;;;;;;6.35;5.72;;;16.80;99.90;;;;;;5094567;28;20279;-63
2021/09/23 08:49:42;;;;;;;5.38;4.88;;;16.80;99.90;;;;;;5093469;28;20676;-64
2021/09/23 08:52:11;;;;;;;6.40;5.60;;;16.90;99.90;;;;;;5094347;28;20226;-64
2021/09/23 08:54:39;;;;;;;7.88;5.45;;;16.80;99.90;;;;;;5094428;28;20196;-63
2021/09/23 08:57:07;;;;;;;6.22;4.95;;;16.80;99.90;;;;;;5094240;28;20208;-63
2021/09/23 08:59:35;;;;;;;6.18;4.90;;;17.00;99.90;;;;;;5094472;28;20203;-63
2021/09/23 09:02:21;;;;;;;5.18;4.43;;;17.10;99.90;;;;;;5093957;28;20184;-64
2021/09/23 09:04:54;;;;;;;7.75;5.22;;;17.20;99.90;;;;;;5094499;28;20184;-63
2021/09/23 09:07:28;;;;;;;5.03;4.53;;;17.20;99.90;;;;;;5094086;28;20231;-63
2021/09/23 09:10:02;;;;;;;6.93;4.88;;;17.30;99.90;;;;;;5094172;28;20622;-63
2021/09/23 09:12:30;;;;;;;5.32;4.82;;;17.40;99.90;;;;;;5093928;28;20695;-63
2021/09/23 09:14:59;;;;;;;6.70;4.57;;;17.50;99.90;;;;;;5093988;28;20200;-65
2021/09/23 09:17:33;;;;;;;5.78;4.68;;;17.50;99.90;;;;;;5093634;28;20609;-64
2021/09/23 09:20:04;;;;;;;7.28;4.90;;;17.50;99.90;;;;;;5094056;28;20180;-62
2021/09/23 09:22:35;;;;;;;5.38;4.85;;;17.30;99.90;;;;;;5094030;28;20327;-62
2021/09/23 09:25:08;;;;;;;5.93;5.13;;;17.20;99.90;;;;;;5093612;28;20195;-64
2021/09/23 09:27:39;;;;;;;7.55;4.35;;;17.10;99.90;;;;;;5093902;28;20271;-63
2021/09/23 09:30:09;;;;;;;5.50;4.05;;;17.00;99.90;;;;;;5093848;28;20271;-63
2021/09/23 09:32:40;;;;;;;6.68;4.53;;;17.10;99.90;;;;;;5093664;28;20545;-63
2021/09/23 09:35:11;;;;;;;6.75;4.60;;;17.00;99.90;;;;;;5093398;28;20267;-63
2021/09/23 09:37:47;;;;;;;4.47;3.78;;;17.10;99.90;;;;;;5093249;28;20731;-63
2021/09/23 09:40:17;;;;;;;5.22;3.70;;;17.10;99.90;;;;;;5093280;28;20636;-63
2021/09/23 09:42:46;;;;;;;5.53;4.15;;;17.20;99.90;;;;;;5093892;28;20200;-63
2021/09/23 09:45:21;;;;;;;5.15;3.97;;;17.30;99.90;;;;;;5093323;28;20208;-64
2021/09/23 09:47:55;;;;;;;4.35;3.80;;;17.40;99.90;;;;;;5093167;28;20545;-63
2021/09/23 09:50:25;;;;;;;5.30;3.65;;;17.50;99.90;;;;;;5093539;28;20186;-64
2021/09/23 09:52:59;;;;;;;7.22;3.75;;;17.60;99.90;;;;;;5093506;28;20180;-64
2021/09/23 09:55:28;;;;;;;4.45;3.40;;;17.90;99.90;;;;;;5093075;28;20298;-64
2021/09/23 09:57:56;;;;;;;4.45;3.45;;;18.10;99.90;;;;;;5093273;28;20319;-64
2021/09/23 10:00:27;;;;;;;4.90;3.78;;;18.40;99.90;;;;;;5091977;28;20210;-64
2021/09/23 10:02:55;;;;;;;3.63;3.33;;;18.40;99.90;;;;;;5092840;28;20180;-62
2021/09/23 10:05:24;;;;;;;5.72;3.40;;;18.70;99.90;;;;;;5092997;28;20210;-63
2021/09/23 10:07:55;;;;;;;4.57;3.72;;;18.70;99.90;;;;;;5092681;28;20720;-63
2021/09/23 10:10:25;;;;;;;3.75;3.42;;;18.70;99.90;;;;;;5092689;28;20738;-64
2021/09/23 10:12:56;;;;;;;3.95;3.05;;;18.70;99.90;;;;;;5093173;28;20234;-64
2021/09/23 10:15:24;;;;;;;5.28;3.92;;;18.70;99.90;;;;;;5093118;28;20250;-64
2021/09/23 10:17:55;;;;;;;4.22;3.47;;;18.60;99.90;;;;;;5092823;28;20246;-63
2021/09/23 10:20:25;;;;;;;3.65;3.25;;;18.50;99.90;;;;;;5092978;28;20195;-64
2021/09/23 10:22:55;;;;;;;4.57;3.13;;;18.50;99.90;;;;;;5092918;28;20199;-64
2021/09/23 10:25:25;;;;;;;5.43;2.85;;;18.50;99.90;;;;;;5092356;28;20295;-64
2021/09/23 10:28:00;;;;;;;3.17;2.85;;;18.60;99.90;;;;;;5092533;28;20180;-64
2021/09/23 10:30:31;;;;;;;3.72;2.83;;;18.80;99.90;;;;;;5092448;28;20279;-64
2021/09/23 10:33:01;;;;;;;3.75;2.63;;;18.90;99.90;;;;;;5092174;28;20539;-63
2021/09/23 10:35:29;;;;;;;4.05;2.63;;;19.10;99.90;;;;;;5092549;28;20200;-63
2021/09/23 10:38:01;;;;;;;4.30;2.60;;;19.20;99.90;;;;;;5092308;28;20224;-64
2021/09/23 10:40:31;;;;;;;4.43;2.60;;;19.40;99.90;;;;;;5092472;28;20188;-63
2021/09/23 10:43:07;;;;;;;3.75;2.78;;;19.40;99.90;;;;;;5092474;28;20204;-63
2021/09/23 10:45:36;;;;;;;4.35;2.90;;;19.60;99.90;;;;;;5092143;28;20632;-64
2021/09/23 10:48:04;;;;;;;2.80;2.40;;;19.70;99.90;;;;;;5092216;28;20280;-64
2021/09/23 10:50:35;;;;;;;3.83;2.42;;;19.80;99.90;;;;;;5092214;28;20207;-64
2021/09/23 10:53:06;;;;;;;2.53;2.33;;;20.00;99.90;;;;;;5092228;28;20318;-63
2021/09/23 10:55:38;;;;;;;3.90;2.67;;;20.00;99.90;;;;;;5092096;28;20279;-64
2021/09/23 10:58:08;;;;;;;5.65;2.67;;;20.00;99.90;;;;;;5091701;28;20746;-63
2021/09/23 11:00:36;;;;;;;4.00;2.70;;;20.10;99.90;;;;;;5092035;28;20231;-63
2021/09/23 11:03:06;;;;;;;5.50;2.80;;;20.10;99.90;;;;;;5091952;28;20253;-63
2021/09/23 11:05:36;;;;;;;8.10;2.80;;;20.10;99.90;;;;;;5091874;28;20216;-63
2021/09/23 11:08:10;;;;;;;3.80;2.78;;;20.10;99.90;;;;;;5091846;28;20227;-63
2021/09/23 11:10:40;;;;;;;5.07;2.50;;;20.10;99.90;;;;;;5091804;28;20195;-63
2021/09/23 11:13:10;;;;;;;2.90;2.70;;;20.20;99.90;;;;;;5091351;28;20857;-63
2021/09/23 11:15:41;;;;;;;3.53;2.38;;;20.20;99.90;;;;;;5091982;28;20196;-63
2021/09/23 11:18:11;;;;;;;6.55;2.40;;;20.40;99.90;;;;;;5091928;28;20295;-64
2021/09/23 11:20:44;;;;;;;4.80;2.08;;;20.40;99.90;;;;;;5092103;28;20195;-64
2021/09/23 11:23:14;;;;;;;3.33;2.30;;;20.40;99.90;;;;;;5091692;28;20275;-64
2021/09/23 11:25:48;;;;;;;6.20;2.70;;;20.40;99.90;;;;;;5091820;28;20294;-63
2021/09/23 11:28:17;;;;;;;7.55;2.55;;;20.50;99.90;;;;;;5092005;28;20181;-63
2021/09/23 11:30:46;;;;;;;3.88;2.20;;;20.70;99.90;;;;;;5091823;28;20640;-63
2021/09/23 11:33:14;;;;;;;3.85;2.13;;;20.70;99.90;;;;;;5091692;28;20298;-64
2021/09/23 11:35:44;;;;;;;2.85;2.20;;;20.70;99.90;;;;;;5091991;28;20632;-64
2021/09/23 11:38:18;;;;;;;5.45;2.33;;;20.60;99.90;;;;;;5091451;28;20214;-64
2021/09/23 11:40:49;;;;;;;8.82;2.30;;;20.50;99.90;;;;;;5091431;28;20593;-64
2021/09/23 11:43:18;;;;;;;3.08;1.85;;;20.70;99.90;;;;;;5091765;28;20599;-63
2021/09/23 11:45:51;;;;;;;6.50;2.40;;;20.80;99.90;;;;;;5091448;28;20303;-64
2021/09/23 11:48:23;;;;;;;4.68;2.40;;;21.00;99.90;;;;;;5091767;28;20302;-63
2021/09/23 11:50:53;;;;;;;10.32;2.72;;;21.00;99.90;;;;;;5091334;28;20708;-63
2021/09/23 11:53:27;;;;;;;3.72;2.10;;;21.10;99.90;;;;;;5091669;28;20227;-65
2021/09/23 11:55:58;;;;;;;5.20;2.35;;;21.20;99.90;;;;;;5091581;28;20188;-64
2021/09/23 11:58:27;;;;;;;3.28;2.30;;;21.20;99.90;;;;;;5091531;28;20319;-63
2021/09/23 12:00:56;;;;;;;4.00;2.40;;;21.30;99.90;;;;;;5091380;28;20200;-63
2021/09/23 12:03:25;;;;;;;9.40;2.72;;;21.30;99.90;;;;;;5091600;28;20211;-64
2021/09/23 12:05:56;;;;;;;5.85;2.10;;;21.40;99.90;;;;;;5091104;28;20207;-63
2021/09/23 12:08:29;;;;;;;3.35;2.28;;;21.40;99.90;;;;;;5091095;28;20317;-63
2021/09/23 12:11:00;;;;;;;3.35;2.40;;;21.50;99.90;;;;;;5071432;28;20189;-64
2021/09/23 12:13:36;;;;;;;3.08;2.30;;;21.60;99.90;;;;;;5071447;28;20189;-62
2021/09/23 12:16:06;;;;;;;2.72;2.10;;;21.70;99.90;;;;;;5071257;28;20187;-63
2021/09/23 12:18:35;;;;;;;5.88;2.13;;;21.80;99.90;;;;;;5070947;28;20209;-64
2021/09/23 12:21:07;;;;;;;3.50;2.17;;;21.90;99.90;;;;;;5071296;28;20243;-64
2021/09/23 12:23:40;;;;;;;3.70;2.25;;;22.10;99.90;;;;;;5071217;28;20216;-63
2021/09/23 12:26:24;;;;;;;4.07;2.35;;;22.40;99.90;;;;;;5074466;28;20193;-64
2021/09/23 12:29:00;;;;;;;2.75;2.55;;;22.70;99.90;;;;;;5073540;28;20203;-64
2021/09/23 12:31:32;;;;;;;3.20;2.20;;;22.70;99.90;;;;;;5074410;28;20216;-64
2021/09/23 12:34:03;;;;;;;3.33;2.50;;;22.70;99.90;;;;;;5074449;28;20181;-63
2021/09/23 12:36:34;;;;;;;7.00;2.45;;;22.70;99.90;;;;;;5074555;28;20185;-64
2021/09/23 12:39:19;;;;;;;2.35;2.10;;;22.60;99.90;;;;;;5074427;28;20569;-64
2021/09/23 12:42:01;;;;;;;4.40;2.35;;;22.40;99.90;;;;;;5074600;28;20276;-63
2021/09/23 12:44:31;;;;;;;3.40;2.63;;;22.20;99.90;;;;;;5074557;28;20200;-63